Aérodrome :
LOGIN :

S'inscrire | Disclaimer

   EN    FR    IT 

 










Légende :    VFR   VFR Marginal   IFR   IFR Intensif   IFR Très Intensif
Visi : 
Plafond : 
>= 8 km
>= 3000ft
5 à 8 km
1000 à 3000 ft
1500m à 5 km
500 à 1000 ft
800 à 1500m
200 à 500 ft
< 800m
< 200 ft
Symboles :   Orages  Brouillard  Fortes neiges  Fortes précipitations  Vent > 20 kt
SIGMETs :   Divers  Orages  Givrage  Turbulence  Onde Orograph.  Cendres Volcan.







- Altitude de l'aérodrome : 286 ft
- Code IATA : FFD


EGVA - RAF Fairford

DERNIER METAR :
  • 210112Z AUTO 04003KT 2200 HZ CLR 11/07 A3008 RMK AO2 VIS 1600V4400 SLP188

METARs EXPIRÉS :
  • 210106Z AUTO 00000KT 2800 HZ CLR 11/08 A3008 RMK AO2 VIS 2800V4400 SLP188
  • 210101Z AUTO 00000KT 4000 HZ CLR 11/08 A3008 RMK AO2 VIS 3600V5000 SLP188
  • 210051Z AUTO 00000KT 5000 HZ CLR 11/08 A3008 RMK AO2 SLP188
  • 210046Z AUTO 00000KT 4000 HZ CLR 11/08 A3008 RMK AO2 VIS 2600V8000 SLP188
  • 210031Z AUTO 06003KT 9000 HZ CLR 11/07 A3009 RMK AO2 SLP192
  • 210001Z AUTO 05005KT 6000 HZ CLR 12/08 A3009 RMK AO2 SLP192
  • 202337Z AUTO 06004KT 6000 HZ CLR 12/08 A3010 RMK AO2 SLP195
  • 202330Z AUTO 06005KT 1000 R27/0500VP1500 HZ CLR 13/08 A3010 RMK AO2 VIS 1000V3000 SLP195
  • 202321Z AUTO 05004KT 2800 HZ CLR 13/08 A3010 RMK AO2 VIS 2400V3600 SLP195
  • 202311Z AUTO 08003KT 2800 HZ CLR 13/08 A3010 RMK AO2 VIS 2600V6000 SLP195
  • 202306Z AUTO 08004KT 3600 HZ CLR 13/08 A3010 RMK AO2 VIS 3600V6000 SLP195
  • 202256Z AUTO 06004KT 6000 HZ CLR 14/08 A3010 RMK AO2 SLP195 T01350077
  • 202251Z AUTO 07004KT 3200 HZ CLR 14/07 A3010 RMK AO2 VIS 3200V5000 SLP195
  • 202246Z AUTO 07003KT 5000 HZ CLR 14/07 A3010 RMK AO2 SLP195
  • 202241Z AUTO 08004KT 3600 HZ CLR 14/07 A3010 RMK AO2 VIS 2400V6000 SLP195
  • 202221Z AUTO 08003KT 6000 HZ CLR 14/07 A3010 RMK AO2 SLP195
  • 202216Z AUTO 00000KT 4000 HZ CLR 14/07 A3010 RMK AO2 VIS 2800V8000 SLP195

Prévision TAF périmée.
Pas de NOTAMs connus pour ce terrain.



MET'MAP, la Météo Aéronautique d'un coup d'oeil ! - Copyright ORBIFLY Décembre 2007 - Disclaimer

ORBIFLY MET'MAP TEAM :

Programmation & Développement : Alexandra Zaïnal
Conception & Développement : Baudouin d'Aumeries
Co-Programmation & Développement : Marc-Olivier Méhu
Soutien technique & logistique : Manuel Goepfert

Contact : metmap@orbifly.com




SOURCES & CREDITS :

   NOAA